sensor_id;sensor_type;location;lat;lon;timestamp;pressure;altitude;pressure_sealevel;temperature;humidity
47082;BME280;33066;49.296;14.470;2023-03-21T00:00:10;97091.12;;;15.30;35.47
47082;BME280;33066;49.296;14.470;2023-03-21T00:02:35;97090.99;;;15.40;35.45
47082;BME280;33066;49.296;14.470;2023-03-21T00:05:00;97091.69;;;15.37;35.48
47082;BME280;33066;49.296;14.470;2023-03-21T00:07:26;97093.03;;;15.35;35.52
47082;BME280;33066;49.296;14.470;2023-03-21T00:09:52;97091.67;;;15.37;35.52
47082;BME280;33066;49.296;14.470;2023-03-21T00:12:16;97090.91;;;15.57;35.55
47082;BME280;33066;49.296;14.470;2023-03-21T00:14:42;97087.87;;;15.55;35.57
47082;BME280;33066;49.296;14.470;2023-03-21T00:17:07;97088.69;;;15.49;35.64
47082;BME280;33066;49.296;14.470;2023-03-21T00:19:33;97088.06;;;15.14;35.79
47082;BME280;33066;49.296;14.470;2023-03-21T00:21:58;97086.63;;;15.02;35.91
47082;BME280;33066;49.296;14.470;2023-03-21T00:24:24;97087.05;;;15.15;35.93
47082;BME280;33066;49.296;14.470;2023-03-21T00:26:49;97089.07;;;15.30;36.03
47082;BME280;33066;49.296;14.470;2023-03-21T00:29:14;97089.10;;;15.27;36.02
47082;BME280;33066;49.296;14.470;2023-03-21T00:31:40;97089.35;;;15.24;36.05
47082;BME280;33066;49.296;14.470;2023-03-21T00:34:05;97089.13;;;14.91;36.13
47082;BME280;33066;49.296;14.470;2023-03-21T00:36:30;97086.41;;;14.94;36.21
47082;BME280;33066;49.296;14.470;2023-03-21T00:38:55;97082.72;;;15.02;36.22
47082;BME280;33066;49.296;14.470;2023-03-21T00:41:21;97077.17;;;15.52;36.20
47082;BME280;33066;49.296;14.470;2023-03-21T00:43:46;97075.10;;;15.08;36.12
47082;BME280;33066;49.296;14.470;2023-03-21T00:46:11;97078.13;;;14.83;36.03
47082;BME280;33066;49.296;14.470;2023-03-21T00:48:36;97075.16;;;15.19;36.24
47082;BME280;33066;49.296;14.470;2023-03-21T00:51:10;97074.69;;;15.14;36.17
47082;BME280;33066;49.296;14.470;2023-03-21T00:53:28;97072.29;;;15.08;36.16
47082;BME280;33066;49.296;14.470;2023-03-21T00:55:53;97073.04;;;14.71;36.24
47082;BME280;33066;49.296;14.470;2023-03-21T00:58:19;97073.81;;;14.85;36.39
47082;BME280;33066;49.296;14.470;2023-03-21T01:00:45;97077.56;;;14.59;36.54
47082;BME280;33066;49.296;14.470;2023-03-21T01:03:12;97078.16;;;14.81;36.47
47082;BME280;33066;49.296;14.470;2023-03-21T01:05:38;97078.92;;;14.76;36.49
47082;BME280;33066;49.296;14.470;2023-03-21T01:08:01;97074.01;;;14.95;36.51
47082;BME280;33066;49.296;14.470;2023-03-21T01:10:26;97074.97;;;14.62;36.51
47082;BME280;33066;49.296;14.470;2023-03-21T01:12:52;97072.15;;;14.56;36.57
47082;BME280;33066;49.296;14.470;2023-03-21T01:15:18;97068.45;;;14.51;36.56
47082;BME280;33066;49.296;14.470;2023-03-21T01:17:43;97064.64;;;14.50;36.65
47082;BME280;33066;49.296;14.470;2023-03-21T01:20:10;97060.15;;;14.48;36.53
47082;BME280;33066;49.296;14.470;2023-03-21T01:22:33;97053.51;;;14.33;36.47
47082;BME280;33066;49.296;14.470;2023-03-21T01:24:58;97048.89;;;14.46;36.52
47082;BME280;33066;49.296;14.470;2023-03-21T01:27:24;97047.34;;;14.30;36.50
47082;BME280;33066;49.296;14.470;2023-03-21T01:29:50;97045.70;;;14.18;36.61
47082;BME280;33066;49.296;14.470;2023-03-21T01:32:15;97045.84;;;14.08;36.74
47082;BME280;33066;49.296;14.470;2023-03-21T01:34:41;97048.48;;;14.04;36.82
47082;BME280;33066;49.296;14.470;2023-03-21T01:37:06;97047.47;;;13.97;36.93
47082;BME280;33066;49.296;14.470;2023-03-21T01:39:32;97047.46;;;13.90;37.05
47082;BME280;33066;49.296;14.470;2023-03-21T01:41:57;97045.75;;;14.03;37.10
47082;BME280;33066;49.296;14.470;2023-03-21T01:44:23;97045.20;;;13.99;37.00
47082;BME280;33066;49.296;14.470;2023-03-21T01:46:49;97041.80;;;14.04;36.85
47082;BME280;33066;49.296;14.470;2023-03-21T01:49:17;97042.19;;;14.24;36.72
47082;BME280;33066;49.296;14.470;2023-03-21T01:51:41;97039.18;;;13.87;36.74
47082;BME280;33066;49.296;14.470;2023-03-21T01:54:07;97038.30;;;13.75;36.82
47082;BME280;33066;49.296;14.470;2023-03-21T01:56:33;97037.78;;;13.68;36.96
47082;BME280;33066;49.296;14.470;2023-03-21T01:59:00;97037.99;;;13.68;36.98
47082;BME280;33066;49.296;14.470;2023-03-21T02:01:21;97036.59;;;13.93;36.86
47082;BME280;33066;49.296;14.470;2023-03-21T02:03:47;97036.07;;;13.68;36.88
47082;BME280;33066;49.296;14.470;2023-03-21T02:06:14;97031.45;;;13.89;36.88
47082;BME280;33066;49.296;14.470;2023-03-21T02:08:39;97033.28;;;13.61;36.93
47082;BME280;33066;49.296;14.470;2023-03-21T02:11:04;97033.76;;;13.61;36.94
47082;BME280;33066;49.296;14.470;2023-03-21T02:13:29;97029.08;;;13.84;36.84
47082;BME280;33066;49.296;14.470;2023-03-21T02:15:58;97027.67;;;13.82;36.83
47082;BME280;33066;49.296;14.470;2023-03-21T02:18:25;97024.35;;;13.54;36.85
47082;BME280;33066;49.296;14.470;2023-03-21T02:25:54;97020.75;;;13.27;36.87
47082;BME280;33066;49.296;14.470;2023-03-21T02:28:08;97024.79;;;13.36;36.93
47082;BME280;33066;49.296;14.470;2023-03-21T02:30:41;97024.18;;;13.29;37.08
47082;BME280;33066;49.296;14.470;2023-03-21T02:33:04;97022.16;;;13.26;37.08
47082;BME280;33066;49.296;14.470;2023-03-21T02:35:27;97023.92;;;13.24;37.27
47082;BME280;33066;49.296;14.470;2023-03-21T02:37:47;97021.31;;;13.30;37.54
47082;BME280;33066;49.296;14.470;2023-03-21T02:40:11;97018.95;;;13.40;37.47
47082;BME280;33066;49.296;14.470;2023-03-21T02:42:43;97021.15;;;13.42;37.07
47082;BME280;33066;49.296;14.470;2023-03-21T02:45:02;97020.27;;;13.30;37.04
47082;BME280;33066;49.296;14.470;2023-03-21T02:47:28;97022.05;;;13.57;37.08
47082;BME280;33066;49.296;14.470;2023-03-21T02:49:54;97023.40;;;13.16;37.08
47082;BME280;33066;49.296;14.470;2023-03-21T02:52:19;97022.38;;;13.18;37.26
47082;BME280;33066;49.296;14.470;2023-03-21T02:54:42;97019.37;;;13.22;37.17
47082;BME280;33066;49.296;14.470;2023-03-21T02:57:07;97022.09;;;13.00;37.05
47082;BME280;33066;49.296;14.470;2023-03-21T02:59:33;97027.72;;;12.86;37.07
47082;BME280;33066;49.296;14.470;2023-03-21T03:01:58;97026.11;;;12.76;37.13
47082;BME280;33066;49.296;14.470;2023-03-21T03:04:24;97024.71;;;12.72;37.07
47082;BME280;33066;49.296;14.470;2023-03-21T03:07:08;97024.55;;;12.88;37.04
47082;BME280;33066;49.296;14.470;2023-03-21T03:09:23;97025.70;;;12.73;37.21
47082;BME280;33066;49.296;14.470;2023-03-21T03:11:41;97026.23;;;12.71;37.12
47082;BME280;33066;49.296;14.470;2023-03-21T03:14:24;97022.67;;;12.72;37.15
47082;BME280;33066;49.296;14.470;2023-03-21T03:16:35;97022.86;;;12.95;37.06
47082;BME280;33066;49.296;14.470;2023-03-21T03:18:58;97022.26;;;12.86;37.14
47082;BME280;33066;49.296;14.470;2023-03-21T03:21:24;97022.09;;;12.58;37.06
47082;BME280;33066;49.296;14.470;2023-03-21T03:23:50;97026.79;;;12.91;37.09
47082;BME280;33066;49.296;14.470;2023-03-21T03:26:15;97028.81;;;12.72;37.19
47082;BME280;33066;49.296;14.470;2023-03-21T03:28:40;97029.72;;;12.83;37.09
47082;BME280;33066;49.296;14.470;2023-03-21T03:31:03;97030.43;;;12.88;37.11
47082;BME280;33066;49.296;14.470;2023-03-21T03:33:29;97030.68;;;13.20;37.02
47082;BME280;33066;49.296;14.470;2023-03-21T03:35:55;97031.88;;;12.84;36.83
47082;BME280;33066;49.296;14.470;2023-03-21T03:38:20;97028.69;;;13.36;36.77
47082;BME280;33066;49.296;14.470;2023-03-21T03:40:48;97028.91;;;12.83;36.53
47082;BME280;33066;49.296;14.470;2023-03-21T03:43:14;97027.67;;;12.97;36.37
47082;BME280;33066;49.296;14.470;2023-03-21T03:45:41;97028.62;;;12.61;36.40
47082;BME280;33066;49.296;14.470;2023-03-21T03:48:04;97029.62;;;12.49;36.47
47082;BME280;33066;49.296;14.470;2023-03-21T03:50:29;97028.28;;;12.47;36.56
47082;BME280;33066;49.296;14.470;2023-03-21T03:52:54;97025.09;;;12.82;36.72
47082;BME280;33066;49.296;14.470;2023-03-21T03:55:18;97023.50;;;12.83;36.84
47082;BME280;33066;49.296;14.470;2023-03-21T03:57:42;97017.22;;;12.84;36.84
47082;BME280;33066;49.296;14.470;2023-03-21T04:00:10;97014.77;;;12.77;37.00
47082;BME280;33066;49.296;14.470;2023-03-21T04:02:32;97011.31;;;12.72;37.07
47082;BME280;33066;49.296;14.470;2023-03-21T04:04:58;97013.53;;;12.72;37.22
47082;BME280;33066;49.296;14.470;2023-03-21T04:07:23;97012.77;;;12.57;37.23
47082;BME280;33066;49.296;14.470;2023-03-21T04:09:48;97013.66;;;12.76;37.20
47082;BME280;33066;49.296;14.470;2023-03-21T04:13:00;97014.42;;;12.87;36.11
47082;BME280;33066;49.296;14.470;2023-03-21T04:15:26;97013.61;;;13.03;36.12
47082;BME280;33066;49.296;14.470;2023-03-21T04:17:51;97014.31;;;12.99;36.47
47082;BME280;33066;49.296;14.470;2023-03-21T04:20:17;97014.71;;;12.99;36.57
47082;BME280;33066;49.296;14.470;2023-03-21T04:22:42;97011.20;;;12.99;36.49
47082;BME280;33066;49.296;14.470;2023-03-21T04:25:08;97013.60;;;12.98;36.56
47082;BME280;33066;49.296;14.470;2023-03-21T04:27:32;97012.19;;;13.20;36.68
47082;BME280;33066;49.296;14.470;2023-03-21T04:29:58;97012.74;;;12.98;36.67
47082;BME280;33066;49.296;14.470;2023-03-21T04:32:23;97014.81;;;12.97;36.60
47082;BME280;33066;49.296;14.470;2023-03-21T04:34:48;97013.91;;;12.99;36.64
47082;BME280;33066;49.296;14.470;2023-03-21T04:37:13;97010.71;;;12.57;36.78
47082;BME280;33066;49.296;14.470;2023-03-21T04:39:39;97009.21;;;12.49;36.85
47082;BME280;33066;49.296;14.470;2023-03-21T04:42:04;97006.60;;;12.69;36.87
47082;BME280;33066;49.296;14.470;2023-03-21T04:44:30;97008.37;;;12.68;36.77
47082;BME280;33066;49.296;14.470;2023-03-21T04:46:55;97008.89;;;12.77;36.77
47082;BME280;33066;49.296;14.470;2023-03-21T04:49:21;97005.87;;;12.66;36.83
47082;BME280;33066;49.296;14.470;2023-03-21T04:51:46;97007.87;;;12.56;36.92
47082;BME280;33066;49.296;14.470;2023-03-21T04:54:12;97009.57;;;12.45;37.07
47082;BME280;33066;49.296;14.470;2023-03-21T04:56:37;97011.40;;;12.35;37.21
47082;BME280;33066;49.296;14.470;2023-03-21T04:59:07;97014.25;;;12.42;37.30
47082;BME280;33066;49.296;14.470;2023-03-21T05:01:28;97014.47;;;12.41;37.35
47082;BME280;33066;49.296;14.470;2023-03-21T05:03:53;97017.92;;;12.27;37.26
47082;BME280;33066;49.296;14.470;2023-03-21T05:06:19;97015.85;;;12.52;37.20
47082;BME280;33066;49.296;14.470;2023-03-21T05:08:44;97016.75;;;12.50;37.16
47082;BME280;33066;49.296;14.470;2023-03-21T05:11:10;97014.53;;;12.56;37.25
47082;BME280;33066;49.296;14.470;2023-03-21T05:13:35;97014.88;;;12.45;37.17
47082;BME280;33066;49.296;14.470;2023-03-21T05:16:00;97014.82;;;12.65;37.20
47082;BME280;33066;49.296;14.470;2023-03-21T05:18:25;97017.59;;;12.28;37.39
47082;BME280;33066;49.296;14.470;2023-03-21T05:20:51;97016.48;;;12.80;37.10
47082;BME280;33066;49.296;14.470;2023-03-21T05:23:16;97017.09;;;12.86;37.05
47082;BME280;33066;49.296;14.470;2023-03-21T05:25:41;97017.74;;;12.87;37.07
47082;BME280;33066;49.296;14.470;2023-03-21T05:28:07;97018.29;;;12.88;37.00
47082;BME280;33066;49.296;14.470;2023-03-21T05:30:32;97020.14;;;12.81;37.04
47082;BME280;33066;49.296;14.470;2023-03-21T05:32:58;97019.16;;;12.78;37.30
47082;BME280;33066;49.296;14.470;2023-03-21T05:35:23;97019.00;;;12.41;37.54
47082;BME280;33066;49.296;14.470;2023-03-21T05:37:48;97018.44;;;12.69;37.51
47082;BME280;33066;49.296;14.470;2023-03-21T05:40:13;97017.69;;;12.42;37.61
47082;BME280;33066;49.296;14.470;2023-03-21T05:42:39;97020.94;;;12.63;37.80
47082;BME280;33066;49.296;14.470;2023-03-21T05:45:05;97023.51;;;12.77;37.92
47082;BME280;33066;49.296;14.470;2023-03-21T05:47:30;97023.73;;;12.95;37.64
47082;BME280;33066;49.296;14.470;2023-03-21T05:49:55;97023.44;;;12.98;37.58
47082;BME280;33066;49.296;14.470;2023-03-21T05:52:20;97026.79;;;12.93;37.61
47082;BME280;33066;49.296;14.470;2023-03-21T05:54:46;97024.75;;;12.78;37.56
47082;BME280;33066;49.296;14.470;2023-03-21T05:57:11;97023.12;;;12.89;37.53
47082;BME280;33066;49.296;14.470;2023-03-21T05:59:37;97022.56;;;12.89;37.54
47082;BME280;33066;49.296;14.470;2023-03-21T06:02:02;97023.25;;;12.89;37.33
47082;BME280;33066;49.296;14.470;2023-03-21T06:04:28;97023.41;;;13.02;37.15
47082;BME280;33066;49.296;14.470;2023-03-21T06:06:53;97023.18;;;13.17;36.89
47082;BME280;33066;49.296;14.470;2023-03-21T06:09:18;97021.26;;;13.32;36.76
47082;BME280;33066;49.296;14.470;2023-03-21T06:11:46;97023.69;;;13.46;36.50
47082;BME280;33066;49.296;14.470;2023-03-21T06:14:09;97022.45;;;13.30;36.46
47082;BME280;33066;49.296;14.470;2023-03-21T06:16:35;97025.81;;;13.36;36.52
47082;BME280;33066;49.296;14.470;2023-03-21T06:19:01;97025.45;;;13.49;36.52
47082;BME280;33066;49.296;14.470;2023-03-21T06:21:26;97025.65;;;13.62;36.42
47082;BME280;33066;49.296;14.470;2023-03-21T06:23:51;97028.12;;;13.98;36.47
47082;BME280;33066;49.296;14.470;2023-03-21T06:26:17;97028.13;;;13.88;36.34
47082;BME280;33066;49.296;14.470;2023-03-21T06:28:42;97028.16;;;14.02;36.24
47082;BME280;33066;49.296;14.470;2023-03-21T06:31:08;97029.10;;;14.17;35.91
47082;BME280;33066;49.296;14.470;2023-03-21T06:33:33;97029.13;;;14.39;35.91
47082;BME280;33066;49.296;14.470;2023-03-21T06:35:59;97030.99;;;14.43;36.08
47082;BME280;33066;49.296;14.470;2023-03-21T06:38:25;97030.75;;;14.47;36.09
47082;BME280;33066;49.296;14.470;2023-03-21T06:40:52;97031.20;;;14.31;36.07
47082;BME280;33066;49.296;14.470;2023-03-21T06:43:17;97031.28;;;14.62;35.75
47082;BME280;33066;49.296;14.470;2023-03-21T06:45:42;97030.22;;;14.37;35.20
47082;BME280;33066;49.296;14.470;2023-03-21T06:48:08;97030.23;;;14.47;35.20
47082;BME280;33066;49.296;14.470;2023-03-21T06:50:34;97030.40;;;14.59;35.07
47082;BME280;33066;49.296;14.470;2023-03-21T06:52:59;97028.51;;;14.70;35.01
47082;BME280;33066;49.296;14.470;2023-03-21T06:55:25;97028.51;;;14.84;34.92
47082;BME280;33066;49.296;14.470;2023-03-21T06:57:51;97029.27;;;14.87;34.76
47082;BME280;33066;49.296;14.470;2023-03-21T07:00:17;97030.79;;;15.13;34.46
47082;BME280;33066;49.296;14.470;2023-03-21T07:02:41;97031.71;;;14.82;34.57
47082;BME280;33066;49.296;14.470;2023-03-21T07:05:07;97038.69;;;14.73;34.30
47082;BME280;33066;49.296;14.470;2023-03-21T07:07:32;97042.03;;;14.71;34.71
47082;BME280;33066;49.296;14.470;2023-03-21T07:09:57;97045.96;;;14.80;35.12
47082;BME280;33066;49.296;14.470;2023-03-21T07:12:22;97043.68;;;14.49;34.85
47082;BME280;33066;49.296;14.470;2023-03-21T07:14:48;97045.94;;;14.79;34.67
47082;BME280;33066;49.296;14.470;2023-03-21T07:17:13;97047.63;;;14.83;34.86
47082;BME280;33066;49.296;14.470;2023-03-21T07:19:39;97045.23;;;14.94;34.49
47082;BME280;33066;49.296;14.470;2023-03-21T07:22:04;97041.88;;;14.94;34.47
47082;BME280;33066;49.296;14.470;2023-03-21T07:24:29;97047.80;;;14.89;34.35
47082;BME280;33066;49.296;14.470;2023-03-21T07:26:54;97043.82;;;14.83;34.21
47082;BME280;33066;49.296;14.470;2023-03-21T07:29:20;97044.00;;;15.09;34.33
47082;BME280;33066;49.296;14.470;2023-03-21T07:31:46;97046.39;;;14.74;34.13
47082;BME280;33066;49.296;14.470;2023-03-21T07:34:11;97049.95;;;14.69;33.94
47082;BME280;33066;49.296;14.470;2023-03-21T07:36:37;97046.67;;;14.75;33.77
47082;BME280;33066;49.296;14.470;2023-03-21T07:39:02;97047.15;;;15.06;34.26
47082;BME280;33066;49.296;14.470;2023-03-21T07:41:27;97044.18;;;15.11;33.63
47082;BME280;33066;49.296;14.470;2023-03-21T07:43:53;97042.61;;;14.92;33.40
47082;BME280;33066;49.296;14.470;2023-03-21T07:46:18;97045.89;;;14.86;33.41
47082;BME280;33066;49.296;14.470;2023-03-21T07:48:43;97046.13;;;15.36;33.66
47082;BME280;33066;49.296;14.470;2023-03-21T07:51:08;97046.58;;;15.46;32.89
47082;BME280;33066;49.296;14.470;2023-03-21T07:53:33;97045.57;;;15.53;32.41
47082;BME280;33066;49.296;14.470;2023-03-21T07:55:58;97046.21;;;15.30;32.46
47082;BME280;33066;49.296;14.470;2023-03-21T07:58:24;97044.85;;;15.74;32.61
47082;BME280;33066;49.296;14.470;2023-03-21T08:00:50;97043.30;;;15.85;32.82
47082;BME280;33066;49.296;14.470;2023-03-21T08:03:15;97043.04;;;15.68;32.38
47082;BME280;33066;49.296;14.470;2023-03-21T08:05:41;97044.03;;;15.92;31.89
47082;BME280;33066;49.296;14.470;2023-03-21T08:08:06;97042.69;;;16.21;32.12
47082;BME280;33066;49.296;14.470;2023-03-21T08:10:31;97044.94;;;16.13;31.63
47082;BME280;33066;49.296;14.470;2023-03-21T08:12:56;97042.15;;;16.24;31.55
47082;BME280;33066;49.296;14.470;2023-03-21T08:15:22;97036.21;;;16.09;31.19
47082;BME280;33066;49.296;14.470;2023-03-21T08:17:47;97034.90;;;16.22;30.91
47082;BME280;33066;49.296;14.470;2023-03-21T08:20:14;97037.55;;;16.46;30.58
47082;BME280;33066;49.296;14.470;2023-03-21T08:22:38;97037.69;;;16.48;29.93
47082;BME280;33066;49.296;14.470;2023-03-21T08:25:03;97037.50;;;16.51;29.55
47082;BME280;33066;49.296;14.470;2023-03-21T08:27:28;97037.58;;;16.52;29.63
47082;BME280;33066;49.296;14.470;2023-03-21T08:29:53;97036.78;;;16.16;29.85
47082;BME280;33066;49.296;14.470;2023-03-21T08:32:18;97038.69;;;16.58;29.48
47082;BME280;33066;49.296;14.470;2023-03-21T08:34:44;97033.20;;;16.18;29.60
47082;BME280;33066;49.296;14.470;2023-03-21T08:37:09;97036.67;;;16.46;29.69
47082;BME280;33066;49.296;14.470;2023-03-21T08:39:34;97035.55;;;16.31;29.72
47082;BME280;33066;49.296;14.470;2023-03-21T08:42:00;97032.85;;;16.49;29.46
47082;BME280;33066;49.296;14.470;2023-03-21T08:44:26;97037.18;;;16.85;29.69
47082;BME280;33066;49.296;14.470;2023-03-21T08:46:51;97035.85;;;16.44;29.66
47082;BME280;33066;49.296;14.470;2023-03-21T08:49:16;97035.36;;;16.26;29.97
47082;BME280;33066;49.296;14.470;2023-03-21T08:51:42;97033.86;;;16.33;29.96
47082;BME280;33066;49.296;14.470;2023-03-21T08:54:17;97031.35;;;16.33;30.03
47082;BME280;33066;49.296;14.470;2023-03-21T08:56:33;97034.34;;;16.40;29.95
47082;BME280;33066;49.296;14.470;2023-03-21T08:58:58;97033.57;;;16.35;29.99
47082;BME280;33066;49.296;14.470;2023-03-21T09:01:24;97032.91;;;16.38;30.24
47082;BME280;33066;49.296;14.470;2023-03-21T09:03:50;97027.24;;;16.78;30.82
47082;BME280;33066;49.296;14.470;2023-03-21T09:06:15;97028.83;;;16.77;30.36
47082;BME280;33066;49.296;14.470;2023-03-21T09:08:41;97025.58;;;17.02;29.93
47082;BME280;33066;49.296;14.470;2023-03-21T09:11:06;97023.09;;;16.48;30.49
47082;BME280;33066;49.296;14.470;2023-03-21T09:13:31;97022.84;;;16.63;30.84
47082;BME280;33066;49.296;14.470;2023-03-21T09:15:56;97021.73;;;16.90;29.85
47082;BME280;33066;49.296;14.470;2023-03-21T09:18:22;97017.54;;;16.92;29.80
47082;BME280;33066;49.296;14.470;2023-03-21T09:20:47;97020.09;;;16.72;29.67
47082;BME280;33066;49.296;14.470;2023-03-21T09:23:15;97016.13;;;17.05;29.55
47082;BME280;33066;49.296;14.470;2023-03-21T09:25:37;97022.55;;;16.90;27.68
47082;BME280;33066;49.296;14.470;2023-03-21T09:28:03;97013.02;;;16.58;27.28
47082;BME280;33066;49.296;14.470;2023-03-21T09:30:28;97013.00;;;16.89;28.24
47082;BME280;33066;49.296;14.470;2023-03-21T09:32:53;97012.60;;;16.70;28.92
47082;BME280;33066;49.296;14.470;2023-03-21T09:35:19;97005.31;;;16.87;29.21
47082;BME280;33066;49.296;14.470;2023-03-21T09:37:45;97005.01;;;17.14;29.74
47082;BME280;33066;49.296;14.470;2023-03-21T09:40:16;97003.20;;;17.13;29.32
47082;BME280;33066;49.296;14.470;2023-03-21T09:42:41;97007.34;;;16.99;29.24
47082;BME280;33066;49.296;14.470;2023-03-21T09:45:07;97006.84;;;17.15;28.65
47082;BME280;33066;49.296;14.470;2023-03-21T09:47:26;97007.10;;;17.34;29.14
47082;BME280;33066;49.296;14.470;2023-03-21T09:49:54;97008.90;;;17.38;28.30
47082;BME280;33066;49.296;14.470;2023-03-21T09:52:20;97008.55;;;17.43;28.58
47082;BME280;33066;49.296;14.470;2023-03-21T09:54:42;97005.55;;;17.41;28.30
47082;BME280;33066;49.296;14.470;2023-03-21T09:57:15;97003.08;;;17.24;28.67
47082;BME280;33066;49.296;14.470;2023-03-21T09:59:35;97001.60;;;17.16;28.57
47082;BME280;33066;49.296;14.470;2023-03-21T10:01:59;96994.47;;;17.78;28.46
47082;BME280;33066;49.296;14.470;2023-03-21T10:04:24;96997.77;;;17.49;28.15
47082;BME280;33066;49.296;14.470;2023-03-21T10:06:55;96992.23;;;17.75;28.06
47082;BME280;33066;49.296;14.470;2023-03-21T10:09:17;96989.73;;;17.56;27.93
47082;BME280;33066;49.296;14.470;2023-03-21T10:11:42;96984.05;;;17.33;28.20
47082;BME280;33066;49.296;14.470;2023-03-21T10:14:10;96981.44;;;17.65;27.93
47082;BME280;33066;49.296;14.470;2023-03-21T10:16:33;96974.83;;;17.86;28.05
47082;BME280;33066;49.296;14.470;2023-03-21T10:18:58;96979.02;;;17.81;27.78
47082;BME280;33066;49.296;14.470;2023-03-21T10:21:23;96974.95;;;17.63;27.98
47082;BME280;33066;49.296;14.470;2023-03-21T10:23:47;96970.50;;;17.80;27.59
47082;BME280;33066;49.296;14.470;2023-03-21T10:26:12;96971.56;;;17.62;27.61
47082;BME280;33066;49.296;14.470;2023-03-21T10:28:39;96965.34;;;18.13;27.56
47082;BME280;33066;49.296;14.470;2023-03-21T10:31:04;96966.37;;;17.95;27.44
47082;BME280;33066;49.296;14.470;2023-03-21T10:33:32;96964.82;;;18.20;27.22
47082;BME280;33066;49.296;14.470;2023-03-21T10:35:55;96962.16;;;18.85;26.65
47082;BME280;33066;49.296;14.470;2023-03-21T10:38:22;96962.48;;;19.53;25.95
47082;BME280;33066;49.296;14.470;2023-03-21T10:40:44;96957.35;;;19.74;25.63
47082;BME280;33066;49.296;14.470;2023-03-21T10:43:17;96957.88;;;20.23;24.70
47082;BME280;33066;49.296;14.470;2023-03-21T10:45:35;96953.93;;;20.93;24.26
47082;BME280;33066;49.296;14.470;2023-03-21T10:48:06;96948.96;;;21.42;23.98
47082;BME280;33066;49.296;14.470;2023-03-21T10:50:28;96946.82;;;21.51;23.93
47082;BME280;33066;49.296;14.470;2023-03-21T10:52:54;96942.24;;;22.03;23.46
47082;BME280;33066;49.296;14.470;2023-03-21T10:55:21;96939.87;;;22.44;23.11
47082;BME280;33066;49.296;14.470;2023-03-21T10:57:41;96938.12;;;22.42;22.72
47082;BME280;33066;49.296;14.470;2023-03-21T11:00:10;96937.21;;;23.02;22.59
47082;BME280;33066;49.296;14.470;2023-03-21T11:02:34;96939.36;;;23.19;21.99
47082;BME280;33066;49.296;14.470;2023-03-21T11:05:03;96931.64;;;23.13;21.85
47082;BME280;33066;49.296;14.470;2023-03-21T11:07:27;96929.84;;;23.63;21.75
47082;BME280;33066;49.296;14.470;2023-03-21T11:09:52;96929.93;;;23.40;21.53
47082;BME280;33066;49.296;14.470;2023-03-21T11:12:15;96927.35;;;23.74;21.40
47082;BME280;33066;49.296;14.470;2023-03-21T11:14:41;96925.13;;;23.67;21.69
47082;BME280;33066;49.296;14.470;2023-03-21T11:17:18;96918.98;;;23.84;21.22
47082;BME280;33066;49.296;14.470;2023-03-21T11:19:31;96920.82;;;23.63;21.26
47082;BME280;33066;49.296;14.470;2023-03-21T11:21:56;96912.23;;;23.82;21.28
47082;BME280;33066;49.296;14.470;2023-03-21T11:24:20;96911.90;;;23.98;21.46
47082;BME280;33066;49.296;14.470;2023-03-21T11:26:47;96911.38;;;24.07;21.43
47082;BME280;33066;49.296;14.470;2023-03-21T11:29:20;96907.47;;;23.83;21.50
47082;BME280;33066;49.296;14.470;2023-03-21T11:31:37;96903.81;;;24.09;21.66
47082;BME280;33066;49.296;14.470;2023-03-21T11:34:05;96898.49;;;24.03;21.54
47082;BME280;33066;49.296;14.470;2023-03-21T11:36:32;96899.94;;;24.26;21.35
47082;BME280;33066;49.296;14.470;2023-03-21T11:38:52;96897.31;;;24.28;21.21
47082;BME280;33066;49.296;14.470;2023-03-21T11:41:21;96893.30;;;24.69;21.33
47082;BME280;33066;49.296;14.470;2023-03-21T11:43:50;96896.17;;;24.40;20.96
47082;BME280;33066;49.296;14.470;2023-03-21T11:46:08;96898.11;;;24.68;20.58
47082;BME280;33066;49.296;14.470;2023-03-21T11:48:37;96890.57;;;24.64;20.72
47082;BME280;33066;49.296;14.470;2023-03-21T11:51:01;96890.01;;;24.60;20.43
47082;BME280;33066;49.296;14.470;2023-03-21T11:53:31;96882.91;;;24.56;20.46
47082;BME280;33066;49.296;14.470;2023-03-21T11:55:56;96877.22;;;24.88;20.27
47082;BME280;33066;49.296;14.470;2023-03-21T11:58:25;96873.47;;;25.28;20.11
47082;BME280;33066;49.296;14.470;2023-03-21T12:00:43;96869.78;;;25.31;19.64
47082;BME280;33066;49.296;14.470;2023-03-21T12:05:31;96861.21;;;25.64;19.41
47082;BME280;33066;49.296;14.470;2023-03-21T12:08:01;96861.72;;;25.71;19.57
47082;BME280;33066;49.296;14.470;2023-03-21T12:10:29;96856.09;;;26.03;19.85
47082;BME280;33066;49.296;14.470;2023-03-21T12:12:51;96849.47;;;26.52;19.12
47082;BME280;33066;49.296;14.470;2023-03-21T12:15:17;96845.02;;;26.91;18.79
47082;BME280;33066;49.296;14.470;2023-03-21T12:17:45;96840.55;;;27.14;18.95
47082;BME280;33066;49.296;14.470;2023-03-21T12:20:14;96836.04;;;27.33;19.46
47082;BME280;33066;49.296;14.470;2023-03-21T12:22:36;96829.07;;;27.53;18.61
47082;BME280;33066;49.296;14.470;2023-03-21T12:24:56;96826.36;;;27.79;17.76
47082;BME280;33066;49.296;14.470;2023-03-21T12:27:27;96823.42;;;27.71;17.30
47082;BME280;33066;49.296;14.470;2023-03-21T12:29:57;96825.61;;;27.47;17.34
47082;BME280;33066;49.296;14.470;2023-03-21T12:32:20;96819.84;;;27.73;17.20
47082;BME280;33066;49.296;14.470;2023-03-21T12:34:48;96820.24;;;27.58;17.17
47082;BME280;33066;49.296;14.470;2023-03-21T12:37:09;96819.90;;;27.59;17.07
47082;BME280;33066;49.296;14.470;2023-03-21T12:39:29;96811.32;;;28.24;17.03
47082;BME280;33066;49.296;14.470;2023-03-21T12:42:01;96813.26;;;27.87;16.72
47082;BME280;33066;49.296;14.470;2023-03-21T12:44:20;96809.88;;;28.00;16.49
47082;BME280;33066;49.296;14.470;2023-03-21T12:46:49;96808.56;;;28.08;16.57